Aviation Digital Data Service (ADDS)

Output produced by METARs form (1949 UTC 31 January 2023)
found at http://www.aviationweather.gov/metar/data/
 
KSEG 311853Z AUTO 02005KT 10SM OVC039 01/M06 A3021 RMK AO2 SLP235 T00061056
KSEG 311753Z AUTO 03006KT 10SM FEW030 SCT043 02/M05 A3024 RMK AO2 SLP244 T00171050 10022 20000 58006
KSEG 311653Z AUTO 35008KT 10SM BKN032 OVC048 01/M04 A3027 RMK AO2 SLP253 T00061039
KSEG 311641Z AUTO 02009KT 10SM FEW019 OVC030 00/M04 A3027 RMK AO2 T00001039
KSEG 311553Z AUTO 36008KT 10SM SCT024 BKN029 OVC037 01/M03 A3026 RMK AO2 SLP251 T00061028
KSEG 311543Z AUTO 36011KT 10SM FEW022 BKN029 OVC037 01/M03 A3026 RMK AO2 T00061033
KSEG 311535Z AUTO 36008KT 10SM BKN031 OVC040 02/M03 A3026 RMK AO2 T00171033
KSEG 311453Z AUTO 31004KT 10SM OVC029 01/M03 A3026 RMK AO2 SLP249 T00111033 51015
KSEG 311353Z AUTO 33004KT 10SM BKN030 OVC039 02/M03 A3025 RMK AO2 SLP245 T00171028
KSEG 311335Z AUTO 33003KT 10SM OVC030 01/M03 A3025 RMK AO2 T00111028
KSEG 311315Z AUTO 33005KT 10SM OVC028 01/M03 A3024 RMK AO2 T00111033
KSEG 311253Z AUTO 35004KT 10SM OVC031 01/M03 A3023 RMK AO2 SLP240 T00111028
KSEG 311153Z AUTO 30004KT 10SM SCT041 OVC070 01/M03 A3022 RMK AO2 SLP236 60002 70003 I6000 T00111028 10050 20011 53019
KSEG 311053Z AUTO 32003KT 10SM OVC070 02/M02 A3018 RMK AO2 SLP224 T00171017
KSEG 310953Z AUTO 06004KT 10SM FEW026 SCT034 OVC065 01/00 A3016 RMK AO2 SLP217 T00110000
KSEG 310943Z AUTO 04003KT 10SM SCT026 BKN034 OVC070 01/00 A3017 RMK AO2 T00110000
KSEG 310922Z AUTO 01004KT 10SM FEW013 BKN020 OVC030 01/00 A3017 RMK AO2 T00110000
KSEG 310912Z AUTO 02005KT 9SM BKN014 OVC021 01/00 A3017 RMK AO2 T00110000
KSEG 310853Z AUTO 03005KT 9SM OVC017 02/00 A3016 RMK AO2 SLP215 60002 I3000 T00170000 53015
KSEG 310753Z AUTO 02008KT 10SM BKN015 OVC021 02/00 A3014 RMK AO2 RAE0659UPB26E38 SLP209 P0000 I1000 T00170000
KSEG 310658Z AUTO 01009G14KT 9SM -RA BKN013 BKN037 OVC047 03/01 A3012 RMK AO2 P0000 T00280011
KSEG 310653Z AUTO 02011G14KT 8SM -RA FEW013 BKN036 OVC046 03/02 A3012 RMK AO2 SLP202 P0002 T00330017
KSEG 310553Z AUTO 33009KT 6SM -RA OVC034 05/01 A3011 RMK AO2 RAB42 SLP199 P0001 60001 T00500011 10089 20050 53007
KSEG 310546Z AUTO 33008KT 9SM -RA OVC032 05/01 A3011 RMK AO2 RAB42 P0001 T00500011
KSEG 310453Z AUTO 32007KT 10SM OVC026 06/02 A3009 RMK AO2 SLP191 T00610022 401170011
KSEG 310353Z AUTO 35006KT 10SM OVC026 07/04 A3008 RMK AO2 SLP187 T00720039
KSEG 310313Z AUTO 34003KT 10SM BKN026 OVC038 07/04 A3009 RMK AO2 T00720039
KSEG 310253Z AUTO 36004KT 10SM FEW025 SCT030 OVC038 08/04 A3009 RMK AO2 SLP193 T00780039 52005
KSEG 310153Z AUTO 32008KT 10SM OVC039 08/04 A3009 RMK AO2 SLP193 T00830044
KSEG 310053Z AUTO 00000KT 10SM OVC041 07/04 A3008 RMK AO2 SLP189 T00720044
KSEG 302353Z AUTO 00000KT 10SM OVC046 07/04 A3008 RMK AO2 SLP188 T00670039 10117 20061 53003
KSEG 302253Z AUTO 29003KT 10SM BKN080 OVC090 08/04 A3007 RMK AO2 SLP186 T00780044
KSEG 302153Z AUTO 00000KT 10SM FEW036 FEW055 OVC080 09/04 A3007 RMK AO2 SLP186 T00940044
KSEG 302053Z AUTO 01003KT 10SM BKN036 OVC043 10/05 A3007 RMK AO2 SLP185 T01000050 55009
KSEG 301953Z AUTO 34006KT 10SM OVC037 11/04 A3005 RMK AO2 SLP180 T01060044
KSEG 301853Z AUTO 00000KT 10SM OVC035 11/05 A3006 RMK AO2 SLP180 T01110050
KSEG 301813Z AUTO 11003KT 10SM OVC034 11/05 A3008 RMK AO2 T01060050
KSEG 301753Z AUTO 09004KT 10SM OVC029 10/04 A3010 RMK AO2 SLP194 T01000044 10100 20011 58027
KSEG 301730Z AUTO 00000KT 10SM BKN029 10/05 A3011 RMK AO2 T01000050
KSEG 301706Z AUTO 00000KT 10SM SCT024 SCT030 09/05 A3013 RMK AO2 T00940050
KSEG 301653Z AUTO 00000KT 10SM BKN024 OVC030 09/05 A3014 RMK AO2 SLP209 T00940050
KSEG 301626Z AUTO 00000KT 10SM BKN023 OVC033 08/04 A3016 RMK AO2 T00830044
KSEG 301601Z AUTO 00000KT 10SM SCT022 SCT035 09/06 A3018 RMK AO2 T00890056
KSEG 301553Z AUTO 00000KT 10SM BKN022 08/04 A3018 RMK AO2 SLP222 T00780044
KSEG 301453Z AUTO 00000KT 7SM OVC022 05/03 A3018 RMK AO2 SLP221 T00500033 53006
KSEG 301353Z AUTO 00000KT 6SM BR OVC017 04/03 A3017 RMK AO2 SLP219 T00440028
KSEG 301253Z AUTO 00000KT 3SM BR OVC017 02/02 A3015 RMK AO2 SLP213 T00220022
KSEG 301153Z AUTO 00000KT 4SM BR BKN019 02/01 A3016 RMK AO2 SLP215 60000 T00170011 10044 20011 58003
KSEG 301142Z AUTO 00000KT 4SM BR SCT019 01/01 A3016 RMK AO2 T00110011
KSEG 301104Z AUTO 00000KT 6SM BR BKN022 02/02 A3016 RMK AO2 T00220017
KSEG 301053Z AUTO 00000KT 5SM BR SCT022 02/02 A3017 RMK AO2 SLP219 T00220017
KSEG 300953Z AUTO 00000KT 5SM BR OVC050 02/02 A3017 RMK AO2 SLP219 T00220017
KSEG 300937Z AUTO 00000KT 6SM BR FEW028 OVC050 02/02 A3017 RMK AO2 T00220017
KSEG 300912Z AUTO 13003KT 6SM BR FEW020 BKN028 02/02 A3017 RMK AO2 T00220017
KSEG 300853Z AUTO 18003KT 6SM BR SCT048 BKN055 03/02 A3017 RMK AO2 SLP218 60000 T00280022 53001
KSEG 300847Z AUTO 19003KT 3SM BR BKN050 03/02 A3017 RMK AO2
KSEG 300843Z AUTO 17003KT 1 1/4SM BR OVC050 02/02 A3016 RMK AO2 T00220017
KSEG 300835Z AUTO 00000KT 3/4SM BR OVC050 02/02 A3017 RMK AO2 T00170017
KSEG 300831Z AUTO 00000KT 1 1/2SM BR BKN055 03/02 A3017 RMK AO2 T00280022
KSEG 300753Z AUTO 33003KT 7SM OVC055 03/03 A3015 RMK AO2 SLP212 T00330028